createdAt,value
2022-08-16T00:01:24.504Z,63.30
2022-08-16T00:03:53.282Z,63.53
2022-08-16T00:06:21.736Z,63.60
2022-08-16T00:08:49.592Z,63.81
2022-08-16T00:11:17.109Z,63.92
2022-08-16T00:13:54.338Z,63.97
2022-08-16T00:17:06.372Z,64.39
2022-08-16T00:19:24.384Z,64.07
2022-08-16T00:22:01.455Z,64.60
2022-08-16T00:24:32.211Z,64.90
2022-08-16T00:27:03.233Z,65.05
2022-08-16T00:29:30.954Z,65.58
2022-08-16T00:32:05.386Z,64.87
2022-08-16T00:34:43.570Z,65.71
2022-08-16T00:37:16.978Z,65.35
2022-08-16T00:39:47.108Z,65.39
2022-08-16T00:42:30.227Z,65.24
2022-08-16T00:45:36.020Z,65.05
2022-08-16T00:48:30.698Z,65.02
2022-08-16T00:50:56.642Z,65.48
2022-08-16T00:53:23.889Z,65.62
2022-08-16T00:55:55.643Z,65.82
2022-08-16T00:58:32.302Z,65.92
2022-08-16T01:01:02.335Z,66.90
2022-08-16T01:03:35.031Z,66.78
2022-08-16T01:06:40.630Z,66.41
2022-08-16T01:08:55.314Z,65.38
2022-08-16T01:11:27.412Z,65.93
2022-08-16T01:14:07.749Z,66.16
2022-08-16T01:16:35.428Z,65.87
2022-08-16T01:19:02.648Z,66.15
2022-08-16T01:22:47.762Z,66.00
2022-08-16T01:24:57.580Z,66.02
2022-08-16T01:27:39.339Z,65.24
2022-08-16T01:30:19.236Z,65.42
2022-08-16T01:32:59.652Z,65.36
2022-08-16T01:35:41.292Z,66.02
2022-08-16T01:38:28.721Z,66.29
2022-08-16T01:41:07.730Z,66.02
2022-08-16T01:43:38.765Z,66.17
2022-08-16T01:46:37.409Z,66.24
2022-08-16T01:49:18.611Z,66.22
2022-08-16T01:51:56.399Z,66.21
2022-08-16T01:54:31.007Z,67.36
2022-08-16T01:57:00.046Z,67.62
2022-08-16T01:59:27.174Z,67.76
2022-08-16T02:02:00.038Z,67.43
2022-08-16T02:04:49.725Z,67.07
2022-08-16T02:07:18.439Z,67.23
2022-08-16T02:09:57.508Z,67.02
2022-08-16T02:12:45.839Z,67.04
2022-08-16T02:15:17.313Z,67.31
2022-08-16T02:17:52.713Z,67.32
2022-08-16T02:20:26.122Z,66.92
2022-08-16T02:22:57.881Z,67.42
2022-08-16T02:25:51.046Z,67.38
2022-08-16T02:28:17.284Z,67.28
2022-08-16T02:30:50.594Z,67.27
2022-08-16T02:33:18.138Z,67.01
2022-08-16T02:35:53.765Z,67.10
2022-08-16T02:38:23.003Z,66.71
2022-08-16T02:40:51.425Z,66.88
2022-08-16T02:43:21.669Z,66.62
2022-08-16T02:45:55.475Z,67.01
2022-08-16T02:48:28.445Z,66.44
2022-08-16T02:51:06.689Z,66.24
2022-08-16T02:53:43.803Z,66.02
2022-08-16T02:56:15.404Z,66.50
2022-08-16T02:58:45.193Z,67.20
2022-08-16T03:01:25.444Z,67.16
2022-08-16T03:04:29.214Z,66.86
2022-08-16T03:06:51.544Z,67.39
2022-08-16T03:09:24.853Z,67.83
2022-08-16T03:11:51.705Z,68.09
2022-08-16T03:14:21.381Z,67.88
2022-08-16T03:16:59.075Z,68.13
2022-08-16T03:19:47.200Z,68.10
2022-08-16T03:22:19.390Z,68.70
2022-08-16T03:24:57.689Z,68.75
2022-08-16T03:27:30.754Z,68.57
2022-08-16T03:30:02.058Z,68.43
2022-08-16T03:32:29.127Z,68.90
2022-08-16T03:34:56.033Z,69.59
2022-08-16T03:37:23.651Z,69.49
2022-08-16T03:39:56.220Z,69.89
2022-08-16T03:42:23.607Z,70.11
2022-08-16T03:44:50.499Z,70.07
2022-08-16T03:47:19.754Z,70.32
2022-08-16T03:49:51.599Z,70.14
2022-08-16T03:52:23.611Z,70.34
2022-08-16T03:54:53.394Z,70.23
2022-08-16T03:57:24.873Z,70.32
2022-08-16T03:59:59.438Z,70.19
2022-08-16T04:02:31.235Z,70.38
2022-08-16T04:04:58.829Z,70.49
2022-08-16T04:07:25.791Z,70.75
2022-08-16T04:09:52.746Z,71.00
2022-08-16T04:12:53.005Z,70.36
2022-08-16T04:15:10.267Z,71.36
2022-08-16T04:17:37.214Z,71.21
2022-08-16T04:20:23.542Z,71.60
2022-08-16T04:22:56.205Z,71.10
2022-08-16T04:25:24.107Z,70.75
2022-08-16T04:27:56.127Z,70.50
2022-08-16T04:30:31.896Z,71.15
2022-08-16T04:33:00.372Z,70.90
2022-08-16T04:35:27.201Z,70.90
2022-08-16T04:38:10.869Z,70.89
2022-08-16T04:40:49.973Z,70.74
2022-08-16T04:43:18.509Z,71.47
2022-08-16T04:45:46.349Z,71.48
2022-08-16T04:48:22.136Z,71.60
2022-08-16T04:50:55.488Z,71.76
2022-08-16T04:53:22.893Z,71.92
2022-08-16T04:55:53.396Z,71.80
2022-08-16T04:58:45.100Z,71.70
2022-08-16T05:01:08.145Z,72.41
2022-08-16T05:03:35.863Z,72.08
2022-08-16T05:06:09.973Z,72.14
2022-08-16T05:08:37.775Z,72.17
2022-08-16T05:11:08.834Z,72.10
2022-08-16T05:13:40.614Z,71.86
2022-08-16T05:16:16.546Z,71.06
2022-08-16T05:18:48.975Z,71.56
2022-08-16T05:21:15.882Z,70.85
2022-08-16T05:23:51.628Z,70.64
2022-08-16T05:26:24.901Z,69.91
2022-08-16T05:28:56.876Z,69.61
2022-08-16T05:31:29.851Z,68.66
2022-08-16T05:33:59.890Z,67.99
2022-08-16T05:36:34.255Z,67.64
2022-08-16T05:39:09.444Z,66.86
2022-08-16T05:41:45.290Z,66.34
2022-08-16T05:44:22.940Z,65.82
2022-08-16T05:47:00.149Z,65.37
2022-08-16T05:49:38.770Z,64.67
2022-08-16T05:52:10.651Z,64.05
2022-08-16T05:54:46.558Z,63.22
2022-08-16T05:57:17.606Z,62.31
2022-08-16T05:59:47.233Z,62.33
2022-08-16T06:02:15.558Z,61.79
2022-08-16T06:04:45.225Z,60.70
2022-08-16T06:07:25.008Z,61.28
2022-08-16T06:09:58.201Z,60.19
2022-08-16T06:12:29.219Z,59.63
2022-08-16T06:15:00.080Z,59.36
2022-08-16T06:17:42.609Z,58.08
2022-08-16T06:20:23.232Z,57.99
2022-08-16T06:22:58.988Z,56.81
2022-08-16T06:25:35.798Z,57.03
2022-08-16T06:28:09.528Z,56.55
2022-08-16T06:30:43.578Z,56.93
2022-08-16T06:33:12.411Z,59.15
2022-08-16T06:35:41.593Z,59.15
2022-08-16T06:38:31.935Z,58.22
2022-08-16T06:40:56.890Z,57.51
2022-08-16T06:43:27.605Z,56.07
2022-08-16T06:45:56.804Z,54.05
2022-08-16T06:48:32.803Z,52.57
2022-08-16T06:51:03.846Z,51.95
2022-08-16T06:53:35.488Z,49.80
2022-08-16T06:56:06.644Z,50.90
2022-08-16T06:58:42.062Z,52.90
2022-08-16T07:01:14.694Z,52.50
2022-08-16T07:03:54.997Z,54.06
2022-08-16T07:06:26.533Z,53.71
2022-08-16T07:08:54.581Z,51.72
2022-08-16T07:11:46.200Z,50.65
2022-08-16T07:14:24.298Z,48.42
2022-08-16T07:16:58.301Z,47.55
2022-08-16T07:20:01.661Z,46.67
2022-08-16T07:22:37.605Z,46.13
2022-08-16T07:25:06.252Z,45.72
2022-08-16T07:27:33.832Z,46.10
2022-08-16T07:30:38.261Z,48.78
2022-08-16T07:32:56.102Z,47.50
2022-08-16T07:35:24.536Z,46.98
2022-08-16T07:37:52.088Z,45.82
2022-08-16T07:40:19.164Z,46.28
2022-08-16T07:42:52.781Z,46.56
2022-08-16T07:45:20.261Z,46.65
2022-08-16T07:47:47.321Z,45.40
2022-08-16T07:50:55.740Z,46.17
2022-08-16T07:53:05.326Z,46.81
2022-08-16T07:55:45.809Z,45.64
2022-08-16T07:58:18.344Z,46.83
2022-08-16T08:01:01.759Z,45.31
2022-08-16T08:03:35.956Z,43.59
2022-08-16T08:06:06.845Z,42.65
2022-08-16T08:08:50.191Z,43.42
2022-08-16T08:11:21.285Z,42.69
2022-08-16T08:13:50.717Z,41.35
2022-08-16T08:16:19.915Z,40.70
2022-08-16T08:18:49.875Z,41.85
2022-08-16T08:21:27.746Z,41.09
2022-08-16T08:24:15.196Z,39.80
2022-08-16T08:26:42.854Z,40.68
2022-08-16T08:29:10.035Z,40.56
2022-08-16T08:31:42.109Z,40.65
2022-08-16T08:34:09.023Z,40.35
2022-08-16T08:36:40.094Z,40.43
2022-08-16T08:39:12.593Z,40.23
2022-08-16T08:41:42.471Z,39.86
2022-08-16T08:44:28.691Z,40.91
2022-08-16T08:47:00.274Z,40.93
2022-08-16T08:49:50.558Z,42.83
2022-08-16T08:52:47.878Z,40.41
2022-08-16T08:55:09.119Z,39.85
2022-08-16T08:57:36.838Z,37.61
2022-08-16T09:00:13.175Z,37.03
2022-08-16T09:02:43.214Z,37.59
2022-08-16T09:05:14.909Z,36.18
2022-08-16T09:08:00.728Z,36.73
2022-08-16T09:10:30.407Z,37.25
2022-08-16T09:12:59.155Z,36.81
2022-08-16T09:15:32.879Z,36.17
2022-08-16T09:18:24.506Z,36.65
2022-08-16T09:20:58.464Z,36.06
2022-08-16T09:23:31.074Z,36.15
2022-08-16T09:26:45.698Z,35.01
2022-08-16T09:29:15.862Z,36.31
2022-08-16T09:31:42.925Z,35.69
2022-08-16T09:34:10.580Z,35.20
2022-08-16T09:36:46.133Z,34.96
2022-08-16T09:39:16.278Z,34.86
2022-08-16T09:41:53.707Z,34.72
2022-08-16T09:45:09.568Z,34.63
2022-08-16T09:47:13.422Z,34.77
2022-08-16T09:49:41.353Z,33.51
2022-08-16T09:52:10.133Z,35.17
2022-08-16T09:54:38.380Z,35.18
2022-08-16T09:57:05.452Z,36.00
2022-08-16T09:59:38.656Z,35.65
2022-08-16T10:02:26.543Z,36.15
2022-08-16T10:04:55.316Z,37.21
2022-08-16T10:07:24.742Z,37.54
2022-08-16T10:09:55.797Z,36.24
2022-08-16T10:12:55.862Z,35.31
2022-08-16T10:15:24.241Z,35.07
2022-08-16T10:18:00.671Z,34.81
2022-08-16T10:20:31.043Z,35.04
2022-08-16T10:23:03.572Z,34.13
2022-08-16T10:27:19.779Z,34.29
2022-08-16T10:28:32.445Z,33.69
2022-08-16T10:31:11.923Z,33.09
2022-08-16T10:33:41.795Z,34.37
2022-08-16T10:36:38.770Z,34.18
2022-08-16T10:39:02.886Z,34.55
2022-08-16T10:41:32.221Z,33.26
2022-08-16T10:44:00.048Z,32.80
2022-08-16T10:46:39.584Z,32.73
2022-08-16T10:49:11.783Z,32.51
2022-08-16T10:52:02.619Z,32.35
2022-08-16T10:54:29.475Z,31.42
2022-08-16T10:56:59.012Z,31.21
2022-08-16T10:59:39.118Z,31.84
2022-08-16T11:02:59.533Z,31.85
2022-08-16T11:05:06.464Z,30.92
2022-08-16T11:07:52.023Z,30.78
2022-08-16T11:19:12.550Z,32.63
2022-08-16T11:24:41.679Z,33.28
2022-08-16T11:27:22.904Z,32.62
2022-08-16T11:29:55.060Z,32.97
2022-08-16T11:32:31.639Z,31.28
2022-08-16T11:35:13.529Z,30.89
2022-08-16T11:38:46.540Z,30.46
2022-08-16T11:40:58.282Z,29.88
2022-08-16T11:43:29.891Z,29.13
2022-08-16T11:46:44.851Z,30.25
2022-08-16T11:48:50.657Z,29.48
2022-08-16T11:51:17.846Z,30.21
2022-08-16T11:53:45.005Z,28.93
2022-08-16T11:56:12.006Z,30.54
2022-08-16T11:58:42.823Z,30.85
2022-08-16T12:01:18.607Z,29.64
2022-08-16T12:03:57.045Z,29.36
2022-08-16T12:06:25.232Z,27.04
2022-08-16T12:09:00.918Z,27.56
2022-08-16T12:11:31.696Z,27.80
2022-08-16T12:14:01.749Z,27.84
2022-08-16T12:16:34.163Z,27.55
2022-08-16T12:19:04.555Z,27.74
2022-08-16T12:21:58.055Z,27.50
2022-08-16T12:24:19.873Z,26.93
2022-08-16T12:26:46.745Z,26.74
2022-08-16T12:29:13.837Z,27.11
2022-08-16T12:32:01.481Z,27.71
2022-08-16T12:34:29.409Z,28.51
2022-08-16T12:36:56.891Z,29.35
2022-08-16T12:39:24.179Z,30.47
2022-08-16T12:41:56.697Z,30.21
2022-08-16T12:44:27.136Z,31.00
2022-08-16T12:47:17.111Z,30.60
2022-08-16T12:49:43.965Z,30.69
2022-08-16T12:52:32.944Z,29.56
2022-08-16T12:55:00.947Z,28.41
2022-08-16T12:57:36.747Z,27.73
2022-08-16T13:00:13.117Z,26.82
2022-08-16T13:02:54.050Z,26.97
2022-08-16T13:05:21.345Z,26.42
2022-08-16T13:07:51.897Z,26.09
2022-08-16T13:10:37.103Z,26.49
2022-08-16T13:13:08.895Z,25.72
2022-08-16T13:15:51.586Z,26.02
2022-08-16T13:18:34.159Z,25.88
2022-08-16T13:21:06.642Z,24.82
2022-08-16T13:23:36.089Z,26.18
2022-08-16T13:26:10.332Z,26.01
2022-08-16T13:28:37.279Z,25.86
2022-08-16T13:31:04.296Z,26.64
2022-08-16T13:33:37.088Z,25.91
2022-08-16T13:36:17.028Z,25.42
2022-08-16T13:38:53.134Z,24.86
2022-08-16T13:41:21.229Z,23.99
2022-08-16T13:43:55.152Z,24.94
2022-08-16T13:46:24.885Z,25.04
2022-08-16T13:48:53.390Z,24.34
2022-08-16T13:51:23.660Z,25.14
2022-08-16T13:53:59.689Z,24.14
2022-08-16T13:56:37.822Z,23.85
2022-08-16T13:59:14.376Z,25.48
2022-08-16T14:01:47.061Z,25.63
2022-08-16T14:04:26.377Z,24.97
2022-08-16T14:06:55.460Z,23.93
2022-08-16T14:09:23.979Z,24.82
2022-08-16T14:11:53.698Z,22.64
2022-08-16T14:14:28.396Z,22.95
2022-08-16T14:17:03.014Z,22.27
2022-08-16T14:19:31.012Z,22.09
2022-08-16T14:22:14.766Z,22.00
2022-08-16T14:24:47.624Z,21.30
2022-08-16T14:27:27.370Z,21.82
2022-08-16T14:29:57.578Z,21.27
2022-08-16T14:32:46.564Z,19.57
2022-08-16T14:35:48.219Z,19.82
2022-08-16T14:38:18.704Z,18.52
2022-08-16T14:40:53.201Z,17.92
2022-08-16T14:43:24.790Z,17.51
2022-08-16T14:45:54.934Z,18.47
2022-08-16T14:48:25.808Z,18.64
2022-08-16T14:50:54.482Z,17.94
2022-08-16T14:53:24.545Z,17.15
2022-08-16T14:55:52.110Z,17.55
2022-08-16T14:58:34.804Z,18.67
2022-08-16T15:01:05.322Z,19.09
2022-08-16T15:03:33.099Z,19.12
2022-08-16T15:06:04.609Z,17.71
2022-08-16T15:08:36.275Z,18.04
2022-08-16T15:11:06.115Z,18.00
2022-08-16T15:13:35.703Z,18.10
2022-08-16T15:16:03.679Z,17.62
2022-08-16T15:18:33.478Z,17.43
2022-08-16T15:21:02.346Z,17.69
2022-08-16T15:23:31.569Z,18.74
2022-08-16T15:26:04.003Z,18.48
2022-08-16T15:28:33.528Z,18.22
2022-08-16T15:31:03.966Z,19.05
2022-08-16T15:33:35.551Z,18.65
2022-08-16T15:36:07.860Z,19.72
2022-08-16T15:38:58.100Z,21.17
2022-08-16T15:41:54.648Z,21.99
2022-08-16T15:44:24.568Z,23.92
2022-08-16T15:46:58.547Z,24.61
2022-08-16T15:49:38.158Z,26.27
2022-08-16T15:52:29.740Z,27.75
2022-08-16T15:55:00.215Z,27.33
2022-08-16T15:57:36.828Z,28.06
2022-08-16T16:00:14.755Z,29.07
2022-08-16T16:02:43.515Z,30.94
2022-08-16T16:05:10.926Z,29.96
2022-08-16T16:07:40.845Z,30.54
2022-08-16T16:10:23.234Z,30.90
2022-08-16T16:13:00.436Z,31.14
2022-08-16T16:15:32.019Z,31.04
2022-08-16T16:17:59.616Z,29.63
2022-08-16T16:20:38.919Z,31.19
2022-08-16T16:23:10.776Z,30.32
2022-08-16T16:25:43.789Z,30.01
2022-08-16T16:29:06.457Z,30.62
2022-08-16T16:31:09.025Z,30.98
2022-08-16T16:33:39.867Z,30.79
2022-08-16T16:36:08.384Z,30.67
2022-08-16T16:38:35.643Z,30.27
2022-08-16T16:41:11.374Z,30.99
2022-08-16T16:43:43.353Z,31.97
2022-08-16T16:46:41.451Z,31.45
2022-08-16T16:49:03.998Z,31.48
2022-08-16T16:51:32.523Z,33.12
2022-08-16T16:54:09.909Z,32.57
2022-08-16T16:56:40.200Z,33.58
2022-08-16T16:59:17.031Z,33.48
2022-08-16T17:01:59.683Z,34.14
2022-08-16T17:04:36.718Z,34.63
2022-08-16T17:07:04.125Z,34.66
2022-08-16T17:09:40.152Z,34.61
2022-08-16T17:12:09.501Z,34.81
2022-08-16T17:14:38.523Z,34.97
2022-08-16T17:17:08.701Z,35.14
2022-08-16T17:19:41.274Z,35.56
2022-08-16T17:22:19.880Z,35.03
2022-08-16T17:24:52.413Z,36.08
2022-08-16T17:27:33.880Z,35.95
2022-08-16T17:30:21.198Z,35.92
2022-08-16T17:33:01.075Z,36.31
2022-08-16T17:35:40.558Z,36.95
2022-08-16T17:38:11.182Z,36.75
2022-08-16T17:40:49.192Z,37.57
2022-08-16T17:43:44.587Z,37.75
2022-08-16T17:46:41.163Z,37.97
2022-08-16T17:49:01.145Z,39.30
2022-08-16T17:51:28.448Z,39.51
2022-08-16T17:53:55.414Z,40.01
2022-08-16T17:56:22.583Z,40.83
2022-08-16T17:58:49.494Z,41.33
2022-08-16T18:01:17.940Z,41.58
2022-08-16T18:04:07.333Z,43.30
2022-08-16T18:06:31.685Z,44.16
2022-08-16T18:09:03.982Z,44.56
2022-08-16T18:11:33.801Z,44.22
2022-08-16T18:14:01.128Z,44.92
2022-08-16T18:16:27.952Z,44.78
2022-08-16T18:18:54.878Z,44.07
2022-08-16T18:21:41.093Z,46.03
2022-08-16T18:24:09.657Z,45.49
2022-08-16T18:26:38.333Z,45.26
2022-08-16T18:29:06.345Z,45.64
2022-08-16T18:31:34.213Z,45.28
2022-08-16T18:34:01.380Z,45.37
2022-08-16T18:36:28.822Z,45.58
2022-08-16T18:39:01.297Z,44.86
2022-08-16T18:41:29.078Z,45.11
2022-08-16T18:44:26.228Z,45.59
2022-08-16T18:46:45.685Z,45.59
2022-08-16T18:49:18.146Z,46.25
2022-08-16T18:51:45.524Z,46.15
2022-08-16T18:54:19.602Z,46.21
2022-08-16T18:56:56.322Z,45.79
2022-08-16T18:59:27.343Z,45.04
2022-08-16T19:01:59.642Z,44.66
2022-08-16T19:04:50.420Z,44.27
2022-08-16T19:07:15.178Z,43.89
2022-08-16T19:09:42.041Z,44.56
2022-08-16T19:12:09.466Z,44.37
2022-08-16T19:14:36.347Z,44.56
2022-08-16T19:17:03.258Z,45.12
2022-08-16T19:19:30.089Z,45.33
2022-08-16T19:21:57.454Z,45.67
2022-08-16T19:24:29.297Z,47.07
2022-08-16T19:26:57.068Z,49.00
2022-08-16T19:29:24.441Z,48.80
2022-08-16T19:31:51.312Z,48.81
2022-08-16T19:34:18.228Z,48.35
2022-08-16T19:36:45.181Z,48.44
2022-08-16T19:39:15.097Z,49.03
2022-08-16T19:41:53.711Z,48.50
2022-08-16T19:44:22.620Z,49.18
2022-08-16T19:46:50.079Z,49.11
2022-08-16T19:49:17.339Z,49.54
2022-08-16T19:51:46.397Z,50.89
2022-08-16T19:54:13.635Z,51.42
2022-08-16T19:56:40.460Z,50.82
2022-08-16T19:59:39.289Z,50.06
2022-08-16T20:01:54.297Z,49.51
2022-08-16T20:04:22.630Z,49.20
2022-08-16T20:06:50.430Z,49.17
2022-08-16T20:09:20.450Z,48.69
2022-08-16T20:11:48.957Z,48.86
2022-08-16T20:14:24.230Z,48.78
2022-08-16T20:16:57.189Z,48.46
2022-08-16T20:19:27.396Z,48.89
2022-08-16T20:21:56.411Z,48.97
2022-08-16T20:24:34.236Z,49.83
2022-08-16T20:27:06.203Z,51.28
2022-08-16T20:29:33.501Z,51.01
2022-08-16T20:32:00.624Z,50.53
2022-08-16T20:34:27.468Z,50.64
2022-08-16T20:36:54.436Z,50.44
2022-08-16T20:39:23.363Z,50.36
2022-08-16T20:41:50.695Z,50.42
2022-08-16T20:44:17.560Z,50.50
2022-08-16T20:46:49.891Z,52.07
2022-08-16T20:49:16.825Z,52.23
2022-08-16T20:51:49.705Z,51.99
2022-08-16T20:54:18.271Z,51.15
2022-08-16T20:56:45.100Z,51.53
2022-08-16T20:59:11.952Z,51.66
2022-08-16T21:01:45.852Z,53.23
2022-08-16T21:04:19.361Z,53.76
2022-08-16T21:06:53.048Z,54.26
2022-08-16T21:09:26.742Z,54.51
2022-08-16T21:11:58.843Z,54.62
2022-08-16T21:14:25.673Z,55.12
2022-08-16T21:16:52.812Z,54.58
2022-08-16T21:19:20.912Z,55.04
2022-08-16T21:21:48.277Z,54.93
2022-08-16T21:24:15.415Z,55.51
2022-08-16T21:26:54.016Z,54.64
2022-08-16T21:29:22.712Z,53.81
2022-08-16T21:31:52.066Z,54.01
2022-08-16T21:34:18.917Z,53.73
2022-08-16T21:36:46.694Z,53.42
2022-08-16T21:39:13.529Z,53.27
2022-08-16T21:41:40.463Z,53.29
2022-08-16T21:44:07.773Z,53.16
2022-08-16T21:46:34.691Z,53.38
2022-08-16T21:49:01.640Z,54.35
2022-08-16T21:51:28.482Z,55.31
2022-08-16T21:53:56.733Z,54.67
2022-08-16T21:56:23.798Z,54.33
2022-08-16T21:58:53.232Z,54.20
2022-08-16T22:01:24.232Z,54.19
2022-08-16T22:04:36.174Z,53.84
2022-08-16T22:06:41.706Z,54.08
2022-08-16T22:09:11.476Z,55.26
2022-08-16T22:11:38.814Z,55.07
2022-08-16T22:14:06.265Z,55.33
2022-08-16T22:16:37.433Z,55.47
2022-08-16T22:19:04.798Z,55.45
2022-08-16T22:21:33.296Z,56.06
2022-08-16T22:24:00.989Z,56.08
2022-08-16T22:26:31.864Z,55.84
2022-08-16T22:29:09.851Z,56.18
2022-08-16T22:31:39.158Z,56.51
2022-08-16T22:34:07.744Z,56.68
2022-08-16T22:36:34.930Z,57.28
2022-08-16T22:39:06.616Z,57.62
2022-08-16T22:41:35.513Z,58.17
2022-08-16T22:44:05.041Z,58.41
2022-08-16T22:46:34.730Z,57.91
2022-08-16T22:49:02.536Z,58.41
2022-08-16T22:51:29.534Z,58.80
2022-08-16T22:53:56.965Z,59.76
2022-08-16T22:56:25.578Z,59.46
2022-08-16T22:58:52.645Z,59.73
2022-08-16T23:01:22.938Z,59.35
2022-08-16T23:03:50.233Z,60.04
2022-08-16T23:06:17.360Z,59.98
2022-08-16T23:08:44.649Z,60.02
2022-08-16T23:11:22.580Z,59.75
2022-08-16T23:13:54.064Z,59.89
2022-08-16T23:16:33.094Z,60.49
2022-08-16T23:19:09.084Z,60.57
2022-08-16T23:21:39.199Z,60.79
2022-08-16T23:24:07.992Z,61.03
2022-08-16T23:26:36.429Z,61.30
2022-08-16T23:29:24.236Z,61.47
2022-08-16T23:31:58.614Z,61.77
2022-08-16T23:34:28.109Z,61.84
2022-08-16T23:36:55.528Z,61.85
2022-08-16T23:39:22.508Z,62.20
2022-08-16T23:41:49.634Z,62.24
2022-08-16T23:44:56.477Z,62.09
2022-08-16T23:47:05.887Z,62.26
2022-08-16T23:49:56.773Z,62.65
2022-08-16T23:52:40.541Z,62.21
2022-08-16T23:55:07.664Z,62.14
2022-08-16T23:57:34.532Z,62.03
